Time;durP1;ratioP1;P1;durP2;ratioP2;P2;SDS_P1;SDS_P2;PMS_P1;PMS_P2;Temp;Humidity;BMP_temperature;BMP_pressure;BME280_temperature;BME280_humidity;BME280_pressure;Samples;Min_cycle;Max_cycle;Signal;HPM_P1;HPM_P2
2022/02/19 00:01:51;;;;;;;3.30;0.80;;;6.40;99.90;;;;;;6212355;23;20739;-83
2022/02/19 00:04:18;;;;;;;1.17;0.63;;;6.40;99.90;;;;;;6210531;23;20751;-84
2022/02/19 00:06:44;;;;;;;2.23;1.37;;;6.40;99.90;;;;;;6214423;23;20443;-84
2022/02/19 00:09:10;;;;;;;3.23;0.90;;;6.40;99.90;;;;;;6212247;23;20392;-84
2022/02/19 00:11:40;;;;;;;1.60;0.90;;;6.40;99.90;;;;;;6212855;23;20545;-84
2022/02/19 00:14:08;;;;;;;0.93;0.87;;;6.40;99.90;;;;;;6211912;23;20151;-84
2022/02/19 00:16:37;;;;;;;1.30;0.83;;;6.50;99.90;;;;;;6214421;23;20397;-84
2022/02/19 00:19:03;;;;;;;3.20;0.70;;;6.50;99.90;;;;;;6214338;23;20398;-84
2022/02/19 00:21:29;;;;;;;2.57;0.80;;;6.50;99.90;;;;;;6213391;23;20405;-84
2022/02/19 00:23:58;;;;;;;2.63;0.90;;;6.40;99.90;;;;;;6212956;23;20919;-84
2022/02/19 00:26:32;;;;;;;3.63;0.80;;;6.50;99.90;;;;;;6211560;23;20203;-84
2022/02/19 00:28:57;;;;;;;3.80;0.97;;;6.50;99.90;;;;;;6212175;23;20396;-83
2022/02/19 00:31:23;;;;;;;2.10;0.80;;;6.50;99.90;;;;;;6210521;23;20401;-83
2022/02/19 00:34:00;;;;;;;3.50;0.80;;;6.50;99.90;;;;;;6212239;23;20329;-83
2022/02/19 00:36:35;;;;;;;1.70;0.93;;;6.50;99.90;;;;;;6213136;23;20467;-83
2022/02/19 00:39:05;;;;;;;5.93;0.87;;;6.50;99.90;;;;;;6208305;23;20384;-83
2022/02/19 00:41:30;;;;;;;1.60;0.70;;;6.50;99.90;;;;;;6215567;23;20419;-83
2022/02/19 00:43:57;;;;;;;1.87;0.90;;;6.60;99.90;;;;;;6211061;23;20386;-83
2022/02/19 00:46:24;;;;;;;1.13;0.90;;;6.60;99.90;;;;;;6209611;23;20206;-83
2022/02/19 00:48:52;;;;;;;1.50;0.70;;;6.60;99.90;;;;;;6186844;23;20485;-83
2022/02/19 00:51:20;;;;;;;3.93;1.03;;;6.60;99.90;;;;;;6211799;23;20894;-84
2022/02/19 00:53:47;;;;;;;3.10;0.90;;;6.60;99.90;;;;;;6211023;23;20414;-84
2022/02/19 00:56:13;;;;;;;1.07;0.70;;;6.70;99.90;;;;;;6210800;23;20599;-84
2022/02/19 00:58:44;;;;;;;4.50;1.20;;;6.60;99.90;;;;;;6213040;23;20486;-84
2022/02/19 01:01:12;;;;;;;4.77;1.10;;;6.60;99.90;;;;;;6209534;23;20437;-84
2022/02/19 01:03:47;;;;;;;2.37;0.87;;;6.60;99.90;;;;;;6209855;23;20386;-84
2022/02/19 01:06:13;;;;;;;1.20;0.97;;;6.60;99.90;;;;;;6208714;23;20507;-83
2022/02/19 01:08:39;;;;;;;2.57;1.13;;;6.60;99.90;;;;;;6211151;23;20386;-84
2022/02/19 01:11:05;;;;;;;6.93;1.00;;;6.60;99.90;;;;;;6210063;23;20401;-84
2022/02/19 01:13:31;;;;;;;3.80;2.10;;;6.50;99.90;;;;;;6213561;23;20531;-84
2022/02/19 01:16:00;;;;;;;3.57;3.13;;;6.60;99.90;;;;;;6209760;23;20764;-84
2022/02/19 01:18:25;;;;;;;2.27;0.80;;;6.70;99.90;;;;;;6186338;23;20405;-84
2022/02/19 01:20:51;;;;;;;3.70;0.93;;;6.70;99.90;;;;;;6208615;23;20386;-84
2022/02/19 01:23:17;;;;;;;2.73;0.70;;;6.60;99.90;;;;;;6213393;23;20197;-84
2022/02/19 01:25:43;;;;;;;3.10;0.80;;;6.80;99.90;;;;;;6216065;23;20197;-84
2022/02/19 01:28:08;;;;;;;5.63;1.53;;;6.80;99.90;;;;;;6213297;23;20161;-84
2022/02/19 01:30:34;;;;;;;5.60;1.10;;;6.90;99.90;;;;;;6212861;23;20558;-84
2022/02/19 01:33:03;;;;;;;5.40;1.27;;;7.00;99.90;;;;;;6212736;23;20534;-83
2022/02/19 01:35:29;;;;;;;2.87;1.23;;;6.90;99.90;;;;;;6209382;23;20247;-82
2022/02/19 01:37:54;;;;;;;5.50;0.97;;;6.90;99.90;;;;;;6211008;23;20472;-83
2022/02/19 01:40:31;;;;;;;2.30;0.70;;;6.90;99.90;;;;;;6209402;23;20372;-83
2022/02/19 01:42:58;;;;;;;5.83;0.97;;;7.00;99.90;;;;;;6210409;23;20155;-83
2022/02/19 01:45:23;;;;;;;9.67;1.10;;;7.00;99.90;;;;;;6215174;22;20449;-83
2022/02/19 01:47:49;;;;;;;0.90;0.70;;;7.00;99.90;;;;;;6214026;22;20385;-82
2022/02/19 01:50:16;;;;;;;2.63;1.03;;;7.00;99.90;;;;;;6213648;22;20587;-82
2022/02/19 01:52:43;;;;;;;1.60;0.90;;;7.10;99.00;;;;;;6213785;22;20209;-82
2022/02/19 01:55:10;;;;;;;2.53;1.00;;;7.10;99.10;;;;;;6213859;22;20504;-84
2022/02/19 01:57:37;;;;;;;4.00;1.13;;;7.00;98.90;;;;;;6211606;22;20403;-83
2022/02/19 02:00:06;;;;;;;4.13;1.10;;;7.00;99.30;;;;;;6213349;22;20462;-83
2022/02/19 02:02:35;;;;;;;5.30;1.10;;;7.00;99.40;;;;;;6212255;22;20396;-83
2022/02/19 02:05:01;;;;;;;5.87;2.00;;;6.90;99.20;;;;;;6212033;22;20927;-84
2022/02/19 02:07:30;;;;;;;3.00;1.10;;;7.00;99.10;;;;;;6216155;22;21207;-84
2022/02/19 02:09:58;;;;;;;4.57;1.00;;;6.90;99.30;;;;;;6217014;22;20388;-84
2022/02/19 02:12:24;;;;;;;3.83;0.97;;;6.90;99.60;;;;;;6214036;22;20395;-83
2022/02/19 02:14:50;;;;;;;7.57;1.73;;;6.90;99.40;;;;;;6221202;22;20785;-83
2022/02/19 02:17:16;;;;;;;6.23;1.33;;;6.90;99.30;;;;;;6215815;22;20700;-83
2022/02/19 02:19:46;;;;;;;1.20;0.80;;;6.90;99.20;;;;;;6214678;22;20540;-84
2022/02/19 02:22:15;;;;;;;7.10;1.40;;;6.80;98.80;;;;;;6215147;22;20234;-84
2022/02/19 02:24:43;;;;;;;4.17;1.37;;;6.90;98.90;;;;;;6217858;22;20388;-84
2022/02/19 02:27:14;;;;;;;2.07;0.80;;;6.80;99.10;;;;;;6212800;22;20393;-83
2022/02/19 02:29:48;;;;;;;5.13;1.60;;;6.80;99.30;;;;;;6216951;22;20387;-83
2022/02/19 02:32:43;;;;;;;;;;;;;;;;;;;;;
2022/02/19 02:35:12;;;;;;;4.30;1.20;;;6.80;99.60;;;;;;6243449;22;20403;-82
2022/02/19 02:37:40;;;;;;;5.90;0.83;;;6.70;99.80;;;;;;6217701;22;20384;-84
2022/02/19 02:40:07;;;;;;;3.50;1.00;;;6.80;99.80;;;;;;6215983;22;20446;-84
2022/02/19 02:42:42;;;;;;;6.70;1.40;;;6.70;99.30;;;;;;6216272;22;20385;-84
2022/02/19 02:45:15;;;;;;;6.17;1.27;;;6.70;99.30;;;;;;6215057;22;20427;-84
2022/02/19 02:47:43;;;;;;;2.83;1.00;;;6.70;99.30;;;;;;6216357;22;20453;-84
2022/02/19 02:50:10;;;;;;;4.43;1.13;;;6.70;99.60;;;;;;6217523;22;20389;-83
2022/02/19 02:52:36;;;;;;;3.33;1.37;;;6.60;99.90;;;;;;6215399;22;20392;-83
2022/02/19 02:55:07;;;;;;;2.77;1.10;;;6.60;99.60;;;;;;6217281;22;20920;-83
2022/02/19 02:57:36;;;;;;;2.60;1.03;;;6.70;99.10;;;;;;6218208;22;21009;-83
2022/02/19 03:00:05;;;;;;;6.23;1.27;;;6.60;98.90;;;;;;6216720;22;20478;-83
2022/02/19 03:02:42;;;;;;;8.70;1.37;;;6.60;99.00;;;;;;6217638;22;20466;-82
2022/02/19 03:05:21;;;;;;;5.53;1.80;;;6.60;99.10;;;;;;6219704;22;20431;-83
2022/02/19 03:07:49;;;;;;;6.63;1.10;;;6.60;99.10;;;;;;6220215;22;20391;-83
2022/02/19 03:10:16;;;;;;;6.77;1.10;;;6.50;98.90;;;;;;6218331;22;20382;-83
2022/02/19 03:12:46;;;;;;;3.50;1.30;;;6.50;98.90;;;;;;6218224;22;20396;-83
2022/02/19 03:15:18;;;;;;;5.40;1.33;;;6.50;98.90;;;;;;6219477;22;20391;-83
2022/02/19 03:17:53;;;;;;;5.50;0.90;;;6.50;98.50;;;;;;6217952;22;20420;-83
2022/02/19 03:20:27;;;;;;;4.90;0.97;;;6.40;98.70;;;;;;6216762;22;20787;-82
2022/02/19 03:22:53;;;;;;;5.27;1.27;;;6.40;98.80;;;;;;6217340;22;20388;-83
2022/02/19 03:25:21;;;;;;;6.60;1.07;;;6.40;98.90;;;;;;6217145;22;20822;-83
2022/02/19 03:27:47;;;;;;;4.33;1.40;;;6.40;98.30;;;;;;6221257;22;20388;-83
2022/02/19 03:30:19;;;;;;;2.73;1.40;;;6.50;98.40;;;;;;6219137;22;20870;-83
2022/02/19 03:32:48;;;;;;;3.97;1.40;;;6.40;98.80;;;;;;6218163;22;20206;-83
2022/02/19 03:35:14;;;;;;;8.40;1.23;;;6.40;98.70;;;;;;6218406;22;20397;-83
2022/02/19 03:37:50;;;;;;;;;;;;;;;;;;;;;
2022/02/19 03:40:16;;;;;;;11.00;1.90;;;6.40;98.50;;;;;;6246380;22;20607;-83
2022/02/19 03:42:43;;;;;;;6.40;1.33;;;6.50;97.30;;;;;;6218997;22;20814;-83
2022/02/19 03:45:11;;;;;;;11.40;1.50;;;6.50;97.20;;;;;;6216868;22;20190;-83
2022/02/19 03:47:37;;;;;;;2.37;0.93;;;6.50;97.80;;;;;;6218346;22;20474;-83
2022/02/19 03:50:07;;;;;;;6.43;1.40;;;6.40;98.30;;;;;;6217741;22;20430;-84
2022/02/19 03:52:37;;;;;;;3.00;1.40;;;6.30;98.00;;;;;;6218325;22;20401;-84
2022/02/19 03:55:06;;;;;;;3.90;1.00;;;6.40;97.40;;;;;;6217834;22;20399;-84
2022/02/19 03:57:45;;;;;;;5.27;1.60;;;6.40;98.00;;;;;;6217432;22;20386;-84
2022/02/19 04:00:21;;;;;;;6.20;1.03;;;6.30;98.40;;;;;;6218187;22;20383;-84
2022/02/19 04:02:49;;;;;;;7.10;1.27;;;6.30;98.30;;;;;;6216423;22;20383;-84
2022/02/19 04:05:23;;;;;;;4.30;1.77;;;6.20;98.40;;;;;;6217294;22;20435;-84
2022/02/19 04:08:00;;;;;;;5.07;1.20;;;6.20;98.90;;;;;;6218021;22;20806;-84
2022/02/19 04:10:40;;;;;;;4.27;1.27;;;6.20;98.80;;;;;;6218385;22;20373;-84
2022/02/19 04:13:06;;;;;;;2.13;1.10;;;6.10;98.60;;;;;;6219577;22;20449;-84
2022/02/19 04:15:41;;;;;;;4.87;1.07;;;6.10;98.40;;;;;;6217433;22;20388;-84
2022/02/19 04:18:20;;;;;;;5.33;1.17;;;6.10;98.80;;;;;;6222156;22;20408;-83
2022/02/19 04:20:46;;;;;;;6.77;1.33;;;6.10;99.00;;;;;;6217475;22;20393;-83
2022/02/19 04:23:11;;;;;;;6.40;2.77;;;6.00;99.10;;;;;;6212093;22;20387;-83
2022/02/19 04:25:37;;;;;;;7.00;1.20;;;6.00;99.00;;;;;;6215016;22;20186;-83
2022/02/19 04:28:05;;;;;;;6.10;1.30;;;6.00;99.40;;;;;;6215235;22;20273;-83
2022/02/19 04:30:31;;;;;;;9.80;1.33;;;5.90;99.40;;;;;;6222025;22;20253;-83
2022/02/19 04:32:59;;;;;;;5.37;1.33;;;6.00;98.40;;;;;;6229135;22;20389;-83
2022/02/19 04:35:27;;;;;;;6.70;0.80;;;6.00;98.30;;;;;;6223640;22;20611;-84
2022/02/19 04:37:53;;;;;;;10.87;1.47;;;6.10;98.00;;;;;;6221449;22;20777;-84
2022/02/19 04:40:22;;;;;;;4.17;1.00;;;6.10;98.20;;;;;;6216267;22;20947;-84
2022/02/19 04:42:51;;;;;;;2.90;1.33;;;6.00;97.70;;;;;;6217408;22;20385;-84
2022/02/19 04:45:19;;;;;;;6.97;1.50;;;6.10;97.50;;;;;;6218469;22;20545;-84
2022/02/19 04:47:47;;;;;;;5.47;1.20;;;6.00;97.80;;;;;;6216912;22;20397;-84
2022/02/19 04:50:15;;;;;;;3.90;1.03;;;5.90;98.30;;;;;;6216916;22;20396;-84
2022/02/19 04:52:43;;;;;;;5.00;1.23;;;5.90;98.90;;;;;;6216318;22;21253;-84
2022/02/19 04:55:19;;;;;;;6.73;1.33;;;5.80;99.30;;;;;;6217044;22;20396;-85
2022/02/19 04:57:45;;;;;;;5.27;1.23;;;5.80;99.70;;;;;;6217572;22;20385;-84
2022/02/19 05:00:13;;;;;;;2.60;0.90;;;5.70;99.10;;;;;;6219582;22;20717;-84
2022/02/19 05:02:39;;;;;;;4.37;1.20;;;5.70;99.50;;;;;;6216176;22;20190;-84
2022/02/19 05:05:05;;;;;;;8.73;1.30;;;5.70;99.10;;;;;;6217104;22;20433;-84
2022/02/19 05:07:35;;;;;;;7.37;1.20;;;5.70;98.90;;;;;;6224827;22;20395;-84
2022/02/19 05:10:03;;;;;;;3.20;1.03;;;5.70;98.40;;;;;;6225680;22;20382;-83
2022/02/19 05:12:40;;;;;;;10.70;2.00;;;5.70;98.20;;;;;;6227332;22;20408;-83
2022/02/19 05:15:11;;;;;;;5.33;1.70;;;5.70;98.20;;;;;;6217088;22;20464;-84
2022/02/19 05:17:58;;;;;;;1.90;1.57;;;5.70;97.60;;;;;;6217712;22;20395;-84
2022/02/19 05:21:00;;;;;;;2.83;0.80;;;5.70;97.10;;;;;;6211606;22;20385;-83
2022/02/19 05:23:25;;;;;;;7.13;1.10;;;5.70;95.60;;;;;;6211101;22;20694;-84
2022/02/19 05:25:51;;;;;;;3.43;0.80;;;5.70;95.30;;;;;;6216181;22;20756;-84
2022/02/19 05:28:17;;;;;;;5.33;1.43;;;5.70;95.10;;;;;;6215335;22;20168;-83
2022/02/19 05:30:43;;;;;;;3.33;1.30;;;5.70;95.20;;;;;;6216062;22;20680;-84
2022/02/19 05:33:08;;;;;;;6.30;0.97;;;5.60;95.20;;;;;;6216741;22;20648;-84
2022/02/19 05:35:34;;;;;;;5.07;1.20;;;5.60;95.10;;;;;;6214366;22;20256;-84
2022/02/19 05:38:03;;;;;;;4.87;1.13;;;5.60;94.10;;;;;;6216238;22;20617;-83
2022/02/19 05:40:29;;;;;;;2.87;0.87;;;5.60;93.80;;;;;;6215453;22;20561;-83
2022/02/19 05:42:54;;;;;;;3.60;1.30;;;5.60;93.80;;;;;;6217706;22;20396;-84
2022/02/19 05:45:20;;;;;;;2.70;1.00;;;5.60;94.10;;;;;;6214970;22;20512;-84
2022/02/19 05:47:46;;;;;;;2.00;0.80;;;5.50;94.10;;;;;;6244498;22;20152;-84
2022/02/19 05:50:12;;;;;;;4.40;1.23;;;5.50;94.10;;;;;;6215756;22;20458;-84
2022/02/19 05:52:38;;;;;;;5.20;1.20;;;5.40;94.10;;;;;;6215473;22;20198;-84
2022/02/19 05:55:04;;;;;;;4.90;1.07;;;5.40;94.40;;;;;;6215886;22;20941;-84
2022/02/19 05:57:31;;;;;;;3.07;1.13;;;5.40;94.80;;;;;;6217527;22;20183;-83
2022/02/19 05:59:57;;;;;;;1.90;0.60;;;5.40;94.70;;;;;;6220797;22;20774;-84
2022/02/19 06:02:22;;;;;;;4.40;1.17;;;5.30;94.80;;;;;;6224440;22;20673;-83
2022/02/19 06:04:48;;;;;;;2.73;0.90;;;5.30;94.50;;;;;;6225000;22;20663;-83
2022/02/19 06:07:14;;;;;;;4.50;1.43;;;5.30;94.30;;;;;;6216580;22;20167;-83
2022/02/19 06:09:40;;;;;;;6.20;2.23;;;5.30;94.40;;;;;;6216266;22;20470;-84
2022/02/19 06:12:08;;;;;;;4.10;1.60;;;5.30;94.40;;;;;;6215107;22;20744;-85
2022/02/19 06:14:34;;;;;;;5.33;1.83;;;5.20;94.60;;;;;;6214797;22;20154;-84
2022/02/19 06:17:00;;;;;;;6.57;1.93;;;5.20;94.70;;;;;;6216848;22;20393;-86
2022/02/19 06:19:28;;;;;;;1.93;0.90;;;5.20;94.70;;;;;;6208950;22;20168;-82
2022/02/19 06:21:57;;;;;;;4.00;1.20;;;5.20;94.70;;;;;;6209356;22;20159;-84
2022/02/19 06:24:28;;;;;;;1.20;0.67;;;5.10;94.70;;;;;;6213649;22;20967;-83
2022/02/19 06:26:54;;;;;;;4.20;1.03;;;5.20;94.50;;;;;;6216368;22;20441;-83
2022/02/19 06:29:20;;;;;;;5.40;1.40;;;5.20;94.30;;;;;;6212820;22;20689;-83
2022/02/19 06:31:46;;;;;;;6.03;1.33;;;5.10;94.60;;;;;;6215000;22;20158;-85
2022/02/19 06:34:12;;;;;;;3.60;1.13;;;5.10;94.90;;;;;;6214716;22;20387;-85
2022/02/19 06:36:37;;;;;;;2.30;0.90;;;5.00;94.90;;;;;;6215535;22;20615;-85
2022/02/19 06:39:06;;;;;;;5.50;1.30;;;5.10;94.60;;;;;;6214505;22;20604;-84
2022/02/19 06:41:34;;;;;;;5.73;1.17;;;5.10;94.90;;;;;;6215188;22;20244;-84
2022/02/19 06:44:06;;;;;;;2.10;0.87;;;5.10;94.80;;;;;;6214265;22;20389;-84
2022/02/19 06:46:35;;;;;;;4.00;1.17;;;5.10;94.70;;;;;;6209231;23;20471;-84
2022/02/19 06:49:00;;;;;;;5.03;1.13;;;5.00;94.90;;;;;;6210218;23;20389;-86
2022/02/19 06:51:29;;;;;;;3.93;1.03;;;5.10;94.60;;;;;;6210327;23;20155;-86
2022/02/19 06:54:24;;;;;;;3.73;0.93;;;5.10;94.50;;;;;;6211044;23;20397;-85
2022/02/19 06:56:52;;;;;;;4.07;1.10;;;5.10;95.00;;;;;;6212247;23;20390;-85
2022/02/19 07:02:06;;;;;;;2.43;0.80;;;5.20;94.80;;;;;;6206521;22;20386;-83
2022/02/19 07:04:31;;;;;;;3.03;1.13;;;5.20;94.90;;;;;;6211944;23;20443;-83
2022/02/19 07:06:57;;;;;;;2.83;1.17;;;5.20;95.10;;;;;;6205142;23;20439;-82
2022/02/19 07:09:23;;;;;;;8.70;1.63;;;5.20;95.20;;;;;;6208808;23;20188;-81
2022/02/19 07:11:56;;;;;;;4.23;1.40;;;5.30;95.30;;;;;;6206392;23;20213;-82
2022/02/19 07:14:22;;;;;;;2.70;1.50;;;5.20;95.30;;;;;;6214514;23;20173;-83
2022/02/19 07:16:49;;;;;;;3.90;1.60;;;5.30;95.50;;;;;;6213307;23;20578;-83
2022/02/19 07:19:15;;;;;;;1.90;1.00;;;5.30;95.20;;;;;;6214827;23;20894;-83
2022/02/19 07:21:41;;;;;;;6.53;1.50;;;5.40;94.50;;;;;;6216387;23;20402;-83
2022/02/19 07:24:08;;;;;;;2.70;1.30;;;5.40;94.80;;;;;;6215218;23;20549;-82
2022/02/19 07:26:34;;;;;;;4.40;1.30;;;5.50;94.70;;;;;;6215519;23;20912;-82
2022/02/19 07:29:01;;;;;;;5.23;1.80;;;5.50;94.90;;;;;;6216301;23;20490;-81
2022/02/19 07:31:27;;;;;;;5.70;2.30;;;5.50;95.10;;;;;;6214985;23;20456;-81
2022/02/19 07:33:52;;;;;;;9.27;2.27;;;5.70;95.00;;;;;;6215205;23;20700;-82
2022/02/19 07:36:21;;;;;;;3.50;1.40;;;5.70;95.10;;;;;;6216615;23;20471;-82
2022/02/19 07:38:47;;;;;;;4.53;1.40;;;5.90;94.90;;;;;;6215446;23;20201;-82
2022/02/19 07:41:21;;;;;;;4.40;1.53;;;5.90;94.60;;;;;;6214794;23;20394;-82
2022/02/19 07:44:05;;;;;;;5.00;1.50;;;5.90;94.70;;;;;;6215922;23;20164;-83
2022/02/19 07:46:50;;;;;;;3.73;1.50;;;5.90;94.90;;;;;;6215755;23;20451;-83
2022/02/19 07:58:23;;;;;;;3.10;1.20;;;5.90;94.70;;;;;;6215916;23;20401;-84
2022/02/19 08:01:17;;;;;;;5.27;1.30;;;6.00;94.70;;;;;;6216626;23;20749;-83
2022/02/19 08:04:14;;;;;;;4.50;0.97;;;6.10;94.70;;;;;;6215326;23;20426;-84
2022/02/19 08:14:05;;;;;;;4.50;1.10;;;5.90;94.70;;;;;;6147152;22;20944;-85
2022/02/19 08:16:34;;;;;;;6.00;1.10;;;5.90;94.60;;;;;;6205101;23;20393;-85
2022/02/19 08:19:02;;;;;;;6.03;1.33;;;5.90;94.60;;;;;;6205127;23;20386;-85
2022/02/19 08:21:46;;;;;;;4.97;1.13;;;5.90;94.90;;;;;;6211489;23;20813;-85
2022/02/19 08:24:32;;;;;;;4.43;1.50;;;5.90;94.70;;;;;;6197367;23;20408;-83
2022/02/19 08:27:04;;;;;;;7.20;1.30;;;5.90;95.00;;;;;;6203175;23;20442;-82
2022/02/19 08:29:29;;;;;;;2.20;1.00;;;5.90;95.00;;;;;;6206627;23;20183;-82
2022/02/19 08:31:55;;;;;;;7.33;2.23;;;5.90;94.90;;;;;;6212129;23;20821;-84
2022/02/19 08:34:23;;;;;;;3.93;1.40;;;5.90;95.00;;;;;;6215531;23;20767;-85
2022/02/19 08:36:55;;;;;;;4.30;1.23;;;6.00;95.10;;;;;;6216623;23;20197;-85
2022/02/19 08:39:21;;;;;;;2.80;1.10;;;6.10;95.20;;;;;;6216527;23;20391;-85
2022/02/19 08:41:47;;;;;;;3.83;1.10;;;5.90;94.80;;;;;;6218687;23;20480;-85
2022/02/19 08:44:13;;;;;;;4.87;1.53;;;5.90;95.00;;;;;;6216081;23;20858;-85
2022/02/19 08:46:41;;;;;;;4.33;1.90;;;6.00;95.30;;;;;;6217591;23;20201;-85
2022/02/19 08:49:06;;;;;;;2.03;0.90;;;6.00;95.30;;;;;;6217275;23;20151;-84
2022/02/19 08:51:32;;;;;;;12.13;1.60;;;6.00;94.60;;;;;;6219176;23;20704;-84
2022/02/19 08:53:58;;;;;;;4.90;1.53;;;6.00;94.70;;;;;;6216092;23;20193;-84
2022/02/19 08:56:24;;;;;;;7.77;1.67;;;6.00;95.10;;;;;;6217592;23;20665;-84
2022/02/19 08:58:50;;;;;;;5.80;1.20;;;6.10;95.20;;;;;;6214590;23;20622;-84
2022/02/19 09:01:16;;;;;;;6.17;1.10;;;6.00;94.80;;;;;;6218609;23;20157;-84
2022/02/19 09:03:42;;;;;;;4.80;1.60;;;6.30;95.00;;;;;;6216541;23;20554;-84
2022/02/19 09:06:08;;;;;;;1.43;1.13;;;6.40;94.60;;;;;;6215554;23;20831;-84
2022/02/19 09:08:34;;;;;;;4.47;1.80;;;6.40;94.70;;;;;;6216323;23;20161;-84
2022/02/19 09:10:59;;;;;;;3.97;1.10;;;6.90;94.10;;;;;;6217845;23;20388;-84
2022/02/19 09:13:25;;;;;;;5.00;1.60;;;7.30;93.30;;;;;;6211585;23;20908;-84
2022/02/19 09:15:51;;;;;;;7.13;2.30;;;7.30;92.60;;;;;;6215229;23;20154;-84
2022/02/19 09:18:17;;;;;;;3.50;1.50;;;7.20;92.70;;;;;;6221709;23;20711;-85
2022/02/19 09:20:43;;;;;;;6.97;1.57;;;7.30;92.80;;;;;;6228736;23;20155;-84
2022/02/19 09:23:08;;;;;;;6.60;1.10;;;7.20;92.20;;;;;;6228985;23;20221;-84
2022/02/19 09:25:34;;;;;;;5.87;1.33;;;6.90;92.10;;;;;;6222938;23;20632;-84
2022/02/19 09:28:00;;;;;;;7.50;2.20;;;6.80;92.60;;;;;;6217484;23;20600;-84
2022/02/19 09:30:27;;;;;;;4.80;1.13;;;6.70;92.50;;;;;;6211982;23;20717;-84
2022/02/19 09:32:52;;;;;;;2.70;0.93;;;6.50;92.20;;;;;;6216558;23;20395;-84
2022/02/19 09:35:18;;;;;;;1.70;1.03;;;6.60;92.40;;;;;;6215226;23;20983;-83
2022/02/19 09:37:46;;;;;;;2.53;1.20;;;6.80;92.30;;;;;;6217163;23;20659;-84
2022/02/19 09:40:14;;;;;;;3.73;1.37;;;6.60;92.80;;;;;;6216997;23;20162;-83
2022/02/19 09:42:40;;;;;;;5.30;1.30;;;6.70;92.50;;;;;;6216223;23;20399;-83
2022/02/19 09:45:07;;;;;;;4.13;1.47;;;6.80;92.00;;;;;;6217987;22;20392;-84
2022/02/19 09:47:35;;;;;;;3.50;0.80;;;7.00;92.10;;;;;;6229789;22;20464;-84
2022/02/19 09:50:07;;;;;;;3.60;1.03;;;6.90;92.00;;;;;;6251181;22;20436;-84
2022/02/19 09:52:33;;;;;;;2.20;0.73;;;6.90;92.60;;;;;;6236891;22;20394;-83
2022/02/19 09:54:59;;;;;;;3.87;0.80;;;7.10;92.00;;;;;;6225810;22;20979;-84
2022/02/19 09:57:26;;;;;;;3.30;1.17;;;7.40;91.20;;;;;;6212621;22;20408;-84
2022/02/19 09:59:52;;;;;;;3.40;0.80;;;7.30;91.20;;;;;;6223115;22;20575;-83
2022/02/19 10:02:30;;;;;;;3.10;1.20;;;7.30;91.40;;;;;;6214030;22;20802;-84
2022/02/19 10:08:01;;;;;;;4.93;1.10;;;7.60;91.20;;;;;;6249491;22;20771;-84
2022/02/19 10:10:28;;;;;;;4.67;1.10;;;7.70;91.00;;;;;;6224630;22;20639;-84
2022/02/19 10:12:54;;;;;;;2.70;1.00;;;7.90;90.30;;;;;;6216936;22;20407;-84
2022/02/19 10:15:20;;;;;;;2.23;1.20;;;7.80;90.20;;;;;;6217068;22;20426;-84
2022/02/19 10:17:45;;;;;;;2.93;1.00;;;7.40;91.20;;;;;;6220881;22;20803;-83
2022/02/19 10:20:17;;;;;;;3.63;1.00;;;7.30;90.70;;;;;;6219070;22;20953;-84
2022/02/19 10:22:46;;;;;;;3.27;1.10;;;7.40;91.50;;;;;;6224693;22;20158;-84
2022/02/19 10:25:17;;;;;;;2.17;1.10;;;7.20;90.90;;;;;;6223733;22;20939;-84
2022/02/19 10:28:07;;;;;;;4.53;1.23;;;7.10;91.20;;;;;;6220796;22;21229;-83
2022/02/19 10:30:34;;;;;;;3.17;1.40;;;7.20;90.60;;;;;;6224431;22;20668;-84
2022/02/19 10:33:03;;;;;;;2.53;1.23;;;7.30;90.70;;;;;;6222589;22;20428;-84
2022/02/19 10:35:38;;;;;;;1.63;1.10;;;7.50;89.10;;;;;;6217009;22;20385;-84
2022/02/19 10:38:09;;;;;;;2.83;0.80;;;7.20;88.70;;;;;;6217468;22;20383;-84
2022/02/19 10:40:43;;;;;;;2.30;0.90;;;7.10;89.50;;;;;;6224360;22;20427;-84
2022/02/19 10:43:20;;;;;;;4.10;1.77;;;7.10;89.80;;;;;;6228382;22;20399;-83
2022/02/19 10:45:57;;;;;;;3.33;1.23;;;7.50;89.90;;;;;;6218686;23;20797;-84
2022/02/19 10:48:24;;;;;;;6.37;1.37;;;7.60;88.10;;;;;;6212861;23;20495;-84
2022/02/19 10:50:50;;;;;;;2.87;0.90;;;7.40;88.20;;;;;;6220330;23;20404;-84
2022/02/19 10:53:29;;;;;;;3.97;1.20;;;7.60;87.90;;;;;;6213208;23;20723;-84
2022/02/19 10:56:00;;;;;;;2.07;0.87;;;7.60;87.60;;;;;;6213744;23;20169;-83
2022/02/19 10:58:26;;;;;;;1.13;0.60;;;7.30;87.00;;;;;;6211034;23;20385;-84
2022/02/19 11:00:52;;;;;;;1.80;0.57;;;7.70;86.30;;;;;;6212175;23;20994;-84
2022/02/19 11:03:18;;;;;;;4.20;1.00;;;7.50;86.00;;;;;;6217200;23;20155;-84
2022/02/19 11:05:47;;;;;;;3.40;1.20;;;7.70;85.60;;;;;;6219330;23;20555;-83
2022/02/19 11:08:13;;;;;;;6.47;1.23;;;7.80;86.70;;;;;;6213087;23;20742;-84
2022/02/19 11:10:39;;;;;;;3.10;0.80;;;8.20;88.20;;;;;;6214185;23;20397;-84
2022/02/19 11:13:05;;;;;;;2.50;1.30;;;8.30;86.20;;;;;;6215552;23;20632;-84
2022/02/19 11:15:31;;;;;;;1.63;0.90;;;8.90;86.20;;;;;;6215977;23;20162;-84
2022/02/19 11:17:58;;;;;;;2.70;0.80;;;8.90;83.40;;;;;;6209170;23;20487;-84
2022/02/19 11:20:24;;;;;;;1.53;0.70;;;8.90;84.50;;;;;;6209949;23;20397;-84
2022/02/19 11:22:53;;;;;;;1.70;1.20;;;8.80;83.20;;;;;;6213521;23;20431;-84
2022/02/19 11:25:21;;;;;;;2.23;0.67;;;8.90;82.50;;;;;;6217573;23;20885;-84
2022/02/19 11:28:00;;;;;;;2.30;0.80;;;9.00;81.30;;;;;;6208822;23;20397;-83
2022/02/19 11:30:34;;;;;;;1.03;0.60;;;9.30;82.00;;;;;;6210215;22;20386;-85
2022/02/19 11:33:01;;;;;;;3.23;0.70;;;9.10;80.60;;;;;;6208394;23;20439;-86
2022/02/19 11:35:40;;;;;;;2.83;0.97;;;9.00;83.00;;;;;;6206110;23;21293;-84
2022/02/19 11:38:37;;;;;;;2.93;0.67;;;8.90;83.30;;;;;;6208408;23;20388;-87
2022/02/19 11:41:12;;;;;;;3.17;0.97;;;9.20;82.30;;;;;;6199070;23;20425;-88
2022/02/19 11:43:43;;;;;;;2.13;1.20;;;9.00;83.10;;;;;;6211639;23;20496;-87
2022/02/19 11:46:15;;;;;;;3.87;1.33;;;8.70;82.70;;;;;;6207331;23;20455;-89
2022/02/19 11:56:27;;;;;;;3.90;1.07;;;9.00;82.60;;;;;;6208372;22;20435;-87
2022/02/19 11:59:26;;;;;;;;;;;;;;;;;;;;;
2022/02/19 12:02:33;;;;;;;;;;;;;;;;;;;;;
2022/02/19 12:05:35;;;;;;;2.77;0.90;;;8.80;83.30;;;;;;6228479;22;20488;-88
2022/02/19 12:09:02;;;;;;;3.80;0.70;;;9.00;81.50;;;;;;6220150;22;20702;-89
2022/02/19 12:34:56;;;;;;;2.40;0.93;;;8.80;79.20;;;;;;6212967;22;21235;-83
2022/02/19 12:38:03;;;;;;;2.23;0.80;;;8.60;79.40;;;;;;6186335;23;20445;-83
2022/02/19 12:41:27;;;;;;;1.53;0.60;;;8.30;81.20;;;;;;6186621;23;20683;-85
2022/02/19 12:44:28;;;;;;;3.83;1.00;;;8.30;80.10;;;;;;6190819;23;20945;-87
2022/02/19 12:46:55;;;;;;;1.60;0.83;;;8.20;81.10;;;;;;6145836;23;20443;-88
2022/02/19 12:49:24;;;;;;;1.80;0.87;;;8.60;80.30;;;;;;6185521;23;20921;-85
2022/02/19 12:52:56;;;;;;;;;;;;;;;;;;;;;
2022/02/19 12:56:02;;;;;;;2.60;0.80;;;8.30;81.80;;;;;;6202149;23;20493;-86
2022/02/19 12:58:50;;;;;;;2.43;0.60;;;8.30;82.60;;;;;;6187933;23;20393;-83
2022/02/19 13:01:38;;;;;;;4.90;0.77;;;8.10;83.90;;;;;;6184399;23;21042;-85
2022/02/19 13:04:47;;;;;;;1.60;0.90;;;7.90;80.80;;;;;;6213601;23;20793;-86
2022/02/19 13:07:45;;;;;;;2.97;0.90;;;7.80;80.90;;;;;;6186937;23;20434;-85
2022/02/19 13:11:13;;;;;;;;;;;;;;;;;;;;;
2022/02/19 13:14:08;;;;;;;3.87;1.17;;;7.80;83.30;;;;;;6216170;23;20775;-84
2022/02/19 13:17:36;;;;;;;2.73;1.27;;;7.80;82.30;;;;;;6193643;23;20867;-86
2022/02/19 13:20:45;;;;;;;;;;;;;;;;;;;;;
2022/02/19 13:23:38;;;;;;;2.20;1.03;;;8.90;80.30;;;;;;6165879;23;20963;-87
2022/02/19 13:26:19;;;;;;;6.13;1.63;;;9.60;78.60;;;;;;6219279;23;20892;-84
2022/02/19 13:28:59;;;;;;;2.80;0.90;;;10.00;75.30;;;;;;6219316;23;20839;-84
2022/02/19 13:31:29;;;;;;;2.90;0.83;;;9.70;75.00;;;;;;6193127;23;20422;-84
2022/02/19 13:34:01;;;;;;;1.63;0.60;;;9.80;74.70;;;;;;6220160;23;20370;-85
2022/02/19 13:36:30;;;;;;;1.73;0.87;;;10.00;70.20;;;;;;6188958;23;20536;-85
2022/02/19 13:38:56;;;;;;;1.70;0.80;;;10.20;70.80;;;;;;6190604;23;20385;-84
2022/02/19 13:41:25;;;;;;;0.97;0.50;;;10.10;69.40;;;;;;6188744;23;20856;-85
2022/02/19 13:44:06;;;;;;;2.07;1.17;;;10.00;69.70;;;;;;6189040;23;20175;-84
2022/02/19 13:46:40;;;;;;;2.27;0.80;;;10.80;70.20;;;;;;6187443;23;20842;-85
2022/02/19 13:49:06;;;;;;;1.97;0.80;;;11.50;69.30;;;;;;6189609;23;20414;-85
2022/02/19 13:51:36;;;;;;;2.47;1.40;;;11.30;65.90;;;;;;6190499;23;20398;-85
2022/02/19 13:54:24;;;;;;;1.37;0.90;;;11.10;66.20;;;;;;6192568;23;20148;-85
2022/02/19 13:56:53;;;;;;;1.40;0.87;;;11.90;67.30;;;;;;6187441;23;20784;-85
2022/02/19 13:59:20;;;;;;;1.53;0.77;;;11.80;66.60;;;;;;6187251;23;20729;-85
2022/02/19 14:01:48;;;;;;;3.93;0.83;;;11.30;63.60;;;;;;6187084;23;20437;-85
2022/02/19 14:04:33;;;;;;;1.40;1.00;;;11.20;65.40;;;;;;6186519;23;20898;-85
2022/02/19 14:07:14;;;;;;;0.87;0.70;;;12.50;65.00;;;;;;6189089;23;20434;-86
2022/02/19 14:09:40;;;;;;;3.10;0.70;;;13.30;59.90;;;;;;6188931;23;20419;-85
2022/02/19 14:12:06;;;;;;;1.63;0.90;;;12.20;58.80;;;;;;6191012;23;20398;-85
2022/02/19 14:14:34;;;;;;;1.33;0.70;;;12.20;59.60;;;;;;6188788;23;20159;-85
2022/02/19 14:17:10;;;;;;;3.17;1.10;;;12.60;60.80;;;;;;6188753;23;20502;-85
2022/02/19 14:19:41;;;;;;;1.33;0.77;;;13.00;58.70;;;;;;6187467;23;20843;-85
2022/02/19 14:22:15;;;;;;;1.77;1.30;;;13.00;57.20;;;;;;6190867;23;20545;-85